Time,TemperatureF,DewpointF,PressureIn,WindDirection,WindDirectionDegrees,WindSpeedMPH,WindSpeedGustMPH,Humidity,HourlyPrecipIn,Conditions,Clouds,dailyrainin,SoftwareType,DateUTC
2013-01-05 00:10:00,43.1,32.0,30.35,ENE,67,1.0,1.0,66,0.00,,,0.00,weatherlink.com 1.10,2013-01-05 06:10:00,
2013-01-05 00:25:00,43.1,32.0,30.34,NE,46,2.0,2.0,66,0.00,,,0.00,weatherlink.com 1.10,2013-01-05 06:25:00,
2013-01-05 00:40:00,43.1,33.0,30.34,NNE,19,1.0,2.0,67,0.00,,,0.00,weatherlink.com 1.10,2013-01-05 06:40:00,
2013-01-05 00:55:00,42.7,33.0,30.34,ENE,65,0.0,2.0,68,0.00,,,0.00,weatherlink.com 1.10,2013-01-05 06:55:00,
2013-01-05 01:10:00,42.7,32.0,30.34,ENE,77,0.0,2.0,67,0.00,,,0.00,weatherlink.com 1.10,2013-01-05 07:10:00,
2013-01-05 01:25:00,42.5,32.0,30.34,NNE,15,2.0,2.0,67,0.00,,,0.00,weatherlink.com 1.10,2013-01-05 07:25:00,
2013-01-05 01:40:00,42.2,32.0,30.34,NNE,15,0.0,2.0,68,0.00,,,0.00,weatherlink.com 1.10,2013-01-05 07:40:00,
2013-01-05 01:55:00,41.2,32.0,30.35,NNE,13,0.0,1.0,70,0.00,,,0.00,weatherlink.com 1.10,2013-01-05 07:55:00,
2013-01-05 02:10:00,40.2,33.0,30.34,NNE,13,0.0,0.0,74,0.00,,,0.00,weatherlink.com 1.10,2013-01-05 08:10:00,
2013-01-05 02:25:00,39.3,33.0,30.34,NNE,14,0.0,0.0,77,0.00,,,0.00,weatherlink.com 1.10,2013-01-05 08:25:00,
2013-01-05 02:40:00,40.1,32.0,30.34,NNE,20,0.0,1.0,74,0.00,,,0.00,weatherlink.com 1.10,2013-01-05 08:40:00,
2013-01-05 02:55:00,39.9,32.0,30.34,ENE,75,0.0,1.0,74,0.00,,,0.00,weatherlink.com 1.10,2013-01-05 08:55:00,
2013-01-05 03:10:00,40.0,32.0,30.34,North,8,0.0,1.0,74,0.00,,,0.00,weatherlink.com 1.10,2013-01-05 09:10:00,
2013-01-05 03:25:00,40.0,32.0,30.34,ENE,61,0.0,1.0,74,0.00,,,0.00,weatherlink.com 1.10,2013-01-05 09:25:00,
2013-01-05 03:40:00,40.5,32.0,30.33,NE,54,2.0,2.0,72,0.00,,,0.00,weatherlink.com 1.10,2013-01-05 09:40:00,
2013-01-05 03:55:00,40.9,32.0,30.33,NNE,16,1.0,3.0,71,0.00,,,0.00,weatherlink.com 1.10,2013-01-05 09:55:00,
2013-01-05 04:10:00,41.0,32.0,30.33,NE,41,0.0,1.0,70,0.00,,,0.00,weatherlink.com 1.10,2013-01-05 10:10:00,
2013-01-05 04:25:00,41.0,32.0,30.32,ENE,57,0.0,3.0,71,0.00,,,0.00,weatherlink.com 1.10,2013-01-05 10:25:00,
2013-01-05 04:40:00,41.0,33.0,30.32,East,80,1.0,5.0,72,0.00,,,0.00,weatherlink.com 1.10,2013-01-05 10:40:00,
2013-01-05 04:55:00,41.1,32.0,30.32,NE,53,1.0,5.0,71,0.00,,,0.00,weatherlink.com 1.10,2013-01-05 10:55:00,
2013-01-05 05:11:00,41.6,32.0,30.32,ENE,63,1.0,4.0,69,0.00,,,0.00,weatherlink.com 1.10,2013-01-05 11:11:00,
2013-01-05 05:26:00,42.0,32.0,30.32,ENE,58,3.0,3.0,68,0.00,,,0.00,weatherlink.com 1.10,2013-01-05 11:26:00,
2013-01-05 05:41:00,42.2,31.0,30.32,NE,52,2.0,5.0,66,0.00,,,0.00,weatherlink.com 1.10,2013-01-05 11:41:00,
2013-01-05 05:56:00,42.4,32.0,30.32,East,84,2.0,7.0,66,0.00,,,0.00,weatherlink.com 1.10,2013-01-05 11:56:00,
2013-01-05 06:11:00,42.3,31.0,30.32,NNE,18,1.0,4.0,65,0.00,,,0.00,weatherlink.com 1.10,2013-01-05 12:11:00,
2013-01-05 06:26:00,42.1,32.0,30.33,ENE,59,2.0,7.0,67,0.00,,,0.00,weatherlink.com 1.10,2013-01-05 12:26:00,
2013-01-05 06:41:00,42.0,31.0,30.33,NE,56,1.0,6.0,66,0.00,,,0.00,weatherlink.com 1.10,2013-01-05 12:41:00,
2013-01-05 06:57:00,42.1,31.0,30.33,East,82,3.0,4.0,66,0.00,,,0.00,weatherlink.com 1.10,2013-01-05 12:57:00,
2013-01-05 07:11:00,42.4,32.0,30.34,NE,50,1.0,6.0,66,0.00,,,0.00,weatherlink.com 1.10,2013-01-05 13:11:00,
2013-01-05 07:26:00,42.7,32.0,30.36,ENE,59,0.0,4.0,66,0.00,,,0.00,weatherlink.com 1.10,2013-01-05 13:26:00,
2013-01-05 07:41:00,43.0,32.0,30.36,ENE,72,4.0,5.0,65,0.00,,,0.00,weatherlink.com 1.10,2013-01-05 13:41:00,
2013-01-05 07:56:00,43.4,32.0,30.36,ENE,63,3.0,4.0,64,0.00,,,0.00,weatherlink.com 1.10,2013-01-05 13:56:00,
2013-01-05 08:11:00,43.7,32.0,30.36,ENE,77,2.0,5.0,64,0.00,,,0.00,weatherlink.com 1.10,2013-01-05 14:11:00,
2013-01-05 08:26:00,44.1,33.0,30.36,ENE,58,0.0,5.0,64,0.00,,,0.00,weatherlink.com 1.10,2013-01-05 14:26:00,
2013-01-05 08:41:00,44.5,32.0,30.36,ENE,65,2.0,5.0,62,0.00,,,0.00,weatherlink.com 1.10,2013-01-05 14:41:00,
2013-01-05 08:56:00,45.0,33.0,30.36,NE,40,1.0,4.0,62,0.00,,,0.00,weatherlink.com 1.10,2013-01-05 14:56:00,
2013-01-05 09:11:00,45.1,32.0,30.36,ENE,70,4.0,8.0,61,0.00,,,0.00,weatherlink.com 1.10,2013-01-05 15:11:00,
2013-01-05 09:26:00,45.5,32.0,30.37,ENE,68,1.0,6.0,60,0.00,,,0.00,weatherlink.com 1.10,2013-01-05 15:26:00,
2013-01-05 09:41:00,45.9,33.0,30.37,NE,56,4.0,4.0,60,0.00,,,0.00,weatherlink.com 1.10,2013-01-05 15:41:00,
2013-01-05 09:56:00,46.2,32.0,30.36,NE,52,1.0,5.0,59,0.00,,,0.00,weatherlink.com 1.10,2013-01-05 15:56:00,
2013-01-05 10:11:00,46.7,33.0,30.36,ENE,61,0.0,3.0,60,0.00,,,0.00,weatherlink.com 1.10,2013-01-05 16:11:00,
2013-01-05 10:26:00,47.0,34.0,30.35,NE,51,2.0,4.0,60,0.00,,,0.00,weatherlink.com 1.10,2013-01-05 16:26:00,
2013-01-05 10:41:00,47.2,34.0,30.35,ENE,72,0.0,4.0,61,0.00,,,0.00,weatherlink.com 1.10,2013-01-05 16:41:00,
2013-01-05 10:56:00,47.7,34.0,30.34,ENE,65,2.0,3.0,59,0.00,,,0.00,weatherlink.com 1.10,2013-01-05 16:56:00,
2013-01-05 11:11:00,47.9,34.0,30.32,ENE,65,1.0,5.0,59,0.00,,,0.00,weatherlink.com 1.10,2013-01-05 17:11:00,
2013-01-05 11:26:00,48.1,34.0,30.32,NE,51,2.0,3.0,59,0.00,,,0.00,weatherlink.com 1.10,2013-01-05 17:26:00,
2013-01-05 11:41:00,48.5,34.0,30.32,East,96,1.0,3.0,58,0.00,,,0.00,weatherlink.com 1.10,2013-01-05 17:41:00,
2013-01-05 11:56:00,48.9,35.0,30.29,NE,43,2.0,4.0,59,0.00,,,0.00,weatherlink.com 1.10,2013-01-05 17:56:00,
2013-01-05 12:12:00,49.5,36.0,30.31,NNW,344,1.0,2.0,59,0.00,,,0.00,weatherlink.com 1.10,2013-01-05 18:12:00,
2013-01-05 12:26:00,49.7,35.0,30.30,NE,56,0.0,1.0,57,0.00,,,0.00,weatherlink.com 1.10,2013-01-05 18:26:00,
2013-01-05 12:41:00,49.5,36.0,30.30,ENE,63,0.0,3.0,59,0.00,,,0.00,weatherlink.com 1.10,2013-01-05 18:41:00,
2013-01-05 12:56:00,49.9,35.0,30.29,ENE,72,1.0,1.0,58,0.00,,,0.00,weatherlink.com 1.10,2013-01-05 18:56:00,
2013-01-05 13:11:00,49.6,36.0,30.29,NW,311,0.0,4.0,60,0.00,,,0.00,weatherlink.com 1.10,2013-01-05 19:11:00,
2013-01-05 13:26:00,49.6,36.0,30.30,SW,235,0.0,2.0,60,0.00,,,0.00,weatherlink.com 1.10,2013-01-05 19:26:00,
2013-01-05 13:41:00,49.8,36.0,30.29,ENE,60,0.0,1.0,60,0.00,,,0.00,weatherlink.com 1.10,2013-01-05 19:41:00,
2013-01-05 13:56:00,49.7,36.0,30.30,North,11,0.0,3.0,60,0.00,,,0.00,weatherlink.com 1.10,2013-01-05 19:56:00,
2013-01-05 14:11:00,49.7,37.0,30.29,East,87,0.0,2.0,61,0.00,,,0.00,weatherlink.com 1.10,2013-01-05 20:11:00,
2013-01-05 14:26:00,49.7,37.0,30.30,East,89,0.0,3.0,61,0.00,,,0.00,weatherlink.com 1.10,2013-01-05 20:26:00,
2013-01-05 14:41:00,49.9,36.0,30.30,ENE,58,1.0,2.0,60,0.00,,,0.00,weatherlink.com 1.10,2013-01-05 20:41:00,
2013-01-05 14:56:00,49.6,36.0,30.28,North,359,0.0,3.0,61,0.00,,,0.00,weatherlink.com 1.10,2013-01-05 20:56:00,
2013-01-05 15:11:00,49.8,38.0,30.31,NNE,15,0.0,4.0,63,0.00,,,0.00,weatherlink.com 1.10,2013-01-05 21:11:00,
2013-01-05 15:26:00,49.7,37.0,30.30,NE,39,1.0,2.0,63,0.00,,,0.00,weatherlink.com 1.10,2013-01-05 21:26:00,
2013-01-05 15:41:00,49.5,38.0,30.31,North,358,0.0,3.0,64,0.00,,,0.00,weatherlink.com 1.10,2013-01-05 21:41:00,
2013-01-05 15:56:00,49.3,38.0,30.31,North,5,2.0,2.0,65,0.00,,,0.00,weatherlink.com 1.10,2013-01-05 21:56:00,
2013-01-05 16:11:00,49.1,38.0,30.29,ENE,72,4.0,5.0,65,0.00,,,0.00,weatherlink.com 1.10,2013-01-05 22:11:00,
2013-01-05 16:26:00,48.9,38.0,30.29,ENE,63,2.0,5.0,66,0.00,,,0.00,weatherlink.com 1.10,2013-01-05 22:26:00,
2013-01-05 16:41:00,48.8,38.0,30.29,NE,34,1.0,3.0,66,0.00,,,0.00,weatherlink.com 1.10,2013-01-05 22:41:00,
2013-01-05 16:56:00,48.6,38.0,30.30,NE,44,1.0,4.0,67,0.00,,,0.00,weatherlink.com 1.10,2013-01-05 22:56:00,
2013-01-05 17:11:00,48.5,38.0,30.29,NNE,32,0.0,5.0,67,0.00,,,0.00,weatherlink.com 1.10,2013-01-05 23:11:00,
2013-01-05 17:26:00,48.4,38.0,30.29,NE,56,1.0,5.0,67,0.00,,,0.00,weatherlink.com 1.10,2013-01-05 23:26:00,
2013-01-05 17:41:00,48.3,38.0,30.28,NE,40,1.0,6.0,68,0.00,,,0.00,weatherlink.com 1.10,2013-01-05 23:41:00,
2013-01-05 17:56:00,48.3,38.0,30.29,NNE,33,0.0,6.0,67,0.00,,,0.00,weatherlink.com 1.10,2013-01-05 23:56:00,
2013-01-05 18:11:00,48.2,38.0,30.29,NNE,13,3.0,6.0,67,0.00,,,0.00,weatherlink.com 1.10,2013-01-06 00:11:00,
2013-01-05 18:26:00,48.2,38.0,30.29,ENE,57,2.0,5.0,67,0.00,,,0.00,weatherlink.com 1.10,2013-01-06 00:26:00,
2013-01-05 18:41:00,48.1,38.0,30.30,NE,50,0.0,4.0,67,0.00,,,0.00,weatherlink.com 1.10,2013-01-06 00:41:00,
2013-01-05 18:57:00,48.1,38.0,30.30,NE,44,1.0,5.0,67,0.00,,,0.00,weatherlink.com 1.10,2013-01-06 00:57:00,
2013-01-05 19:12:00,48.1,37.0,30.29,NNE,22,1.0,5.0,66,0.00,,,0.00,weatherlink.com 1.10,2013-01-06 01:12:00,
2013-01-05 19:27:00,48.1,37.0,30.29,ENE,57,1.0,4.0,66,0.00,,,0.00,weatherlink.com 1.10,2013-01-06 01:27:00,
2013-01-05 19:42:00,48.2,37.0,30.30,NE,36,1.0,4.0,65,0.00,,,0.00,weatherlink.com 1.10,2013-01-06 01:42:00,
2013-01-05 19:57:00,48.3,37.0,30.29,NE,43,2.0,7.0,64,0.00,,,0.00,weatherlink.com 1.10,2013-01-06 01:57:00,
2013-01-05 20:12:00,48.3,36.0,30.28,ENE,70,5.0,5.0,63,0.00,,,0.00,weatherlink.com 1.10,2013-01-06 02:12:00,
2013-01-05 20:27:00,48.4,36.0,30.28,NE,46,1.0,4.0,63,0.00,,,0.00,weatherlink.com 1.10,2013-01-06 02:27:00,
2013-01-05 20:42:00,48.4,37.0,30.28,NE,49,2.0,5.0,64,0.00,,,0.00,weatherlink.com 1.10,2013-01-06 02:42:00,
2013-01-05 20:57:00,48.3,37.0,30.27,NE,47,1.0,5.0,65,0.00,,,0.00,weatherlink.com 1.10,2013-01-06 02:57:00,
2013-01-05 21:12:00,48.4,37.0,30.27,East,98,2.0,4.0,64,0.00,,,0.00,weatherlink.com 1.10,2013-01-06 03:12:00,
2013-01-05 21:27:00,48.5,37.0,30.27,ENE,61,4.0,5.0,64,0.00,,,0.00,weatherlink.com 1.10,2013-01-06 03:27:00,
2013-01-05 21:42:00,48.5,37.0,30.26,NE,51,0.0,5.0,65,0.00,,,0.00,weatherlink.com 1.10,2013-01-06 03:42:00,
2013-01-05 21:57:00,48.6,37.0,30.26,NE,48,1.0,3.0,65,0.00,,,0.00,weatherlink.com 1.10,2013-01-06 03:57:00,
2013-01-05 22:12:00,48.5,38.0,30.27,NE,36,0.0,4.0,66,0.00,,,0.00,weatherlink.com 1.10,2013-01-06 04:12:00,
2013-01-05 22:27:00,48.4,37.0,30.27,North,6,0.0,3.0,66,0.00,,,0.00,weatherlink.com 1.10,2013-01-06 04:27:00,
2013-01-05 22:42:00,48.3,38.0,30.26,East,81,1.0,4.0,67,0.00,,,0.00,weatherlink.com 1.10,2013-01-06 04:42:00,
2013-01-05 22:57:00,48.2,38.0,30.25,NE,53,1.0,4.0,68,0.00,,,0.00,weatherlink.com 1.10,2013-01-06 04:57:00,
2013-01-05 23:27:00,48.5,38.0,30.25,ENE,75,1.0,3.0,68,0.00,,,0.00,weatherlink.com 1.10,2013-01-06 05:27:00,
2013-01-05 23:42:00,48.7,38.0,30.25,East,86,0.0,3.0,67,0.00,,,0.00,weatherlink.com 1.10,2013-01-06 05:42:00,
2013-01-05 23:57:00,48.8,39.0,30.25,ENE,58,2.0,2.0,68,0.00,,,0.00,weatherlink.com 1.10,2013-01-06 05:57:00,